< < Back
Terminal Aerodrome Forecast


Current Version              Previous Versions:   1  2  3  4  5  6  7  8  9  

Terminal Aerodrome Forecast

400
FTUS42 KILM 010250 AAA
TAFILM
TAF AMD
KILM 010250Z 0103/0124 VRB04KT P6SM FEW005 OVC050
     FM010500 VRB02KT 4SM BR SCT005 SCT020
      TEMPO 0109/0111 2SM BR BKN003
     FM011400 33005KT P6SM SCT015 BKN040
     FM011600 18006KT P6SM FEW050 SCT250=



Latest METAR

013
SAUS70 KWBC 010800 RRJ
MTRILM
METAR KILM 010753Z AUTO 31003KT 10SM OVC003 23/22 A3004 RMK AO2 SLP172
T02280222 $


USA.gov is the U.S. government's official web portal to all federal, state and local government web resources and services.